createdAt,value
2022-11-30T03:59:33.003Z,4.40
2022-11-30T04:00:33.139Z,4.60
2022-11-30T04:01:33.308Z,4.20
2022-11-30T04:02:33.429Z,3.50
2022-11-30T04:03:33.581Z,3.30
2022-11-30T04:04:33.671Z,3.30
2022-11-30T04:05:33.849Z,3.90
2022-11-30T04:06:33.949Z,3.60
2022-11-30T04:07:34.097Z,3.50
2022-11-30T04:08:34.161Z,3.80
2022-11-30T04:09:34.322Z,3.80
2022-11-30T04:10:34.449Z,2.90
2022-11-30T04:11:34.550Z,3.70
2022-11-30T04:12:34.647Z,3.60
2022-11-30T04:13:34.825Z,3.00
2022-11-30T04:14:34.911Z,4.20
2022-11-30T04:15:35.016Z,3.90
2022-11-30T04:16:35.239Z,3.60
2022-11-30T04:17:35.302Z,3.40
2022-11-30T04:18:35.449Z,3.40
2022-11-30T04:19:35.610Z,3.80
2022-11-30T04:20:40.177Z,3.40
2022-11-30T04:21:35.900Z,3.70
2022-11-30T04:22:36.047Z,2.80
2022-11-30T04:23:36.194Z,3.50
2022-11-30T04:24:37.285Z,3.50
2022-11-30T04:25:36.485Z,3.80
2022-11-30T04:26:36.635Z,3.60
2022-11-30T04:27:36.741Z,3.00
2022-11-30T04:28:36.888Z,3.30
2022-11-30T04:29:37.026Z,3.30
2022-11-30T04:30:37.171Z,2.80
2022-11-30T04:31:37.363Z,4.00
2022-11-30T04:32:37.479Z,3.30
2022-11-30T04:33:37.594Z,3.50
2022-11-30T04:34:37.738Z,3.20
2022-11-30T04:35:37.888Z,3.60
2022-11-30T04:36:38.031Z,3.90
2022-11-30T04:37:38.197Z,3.40
2022-11-30T04:38:38.285Z,3.30
2022-11-30T04:39:38.432Z,3.30
2022-11-30T04:40:38.542Z,3.20
2022-11-30T04:41:38.623Z,3.80
2022-11-30T04:42:38.775Z,3.40
2022-11-30T04:43:39.861Z,3.20
2022-11-30T04:44:39.049Z,2.90
2022-11-30T04:45:39.166Z,3.80
2022-11-30T04:46:39.361Z,3.30
2022-11-30T04:47:39.547Z,3.00
2022-11-30T04:48:39.631Z,3.60
2022-11-30T04:49:39.810Z,3.30
2022-11-30T04:50:39.898Z,3.10
2022-11-30T04:51:40.043Z,2.80
2022-11-30T04:52:40.202Z,3.00
2022-11-30T04:53:40.323Z,2.80
2022-11-30T04:54:40.462Z,3.70
2022-11-30T04:55:40.600Z,3.70
2022-11-30T04:56:40.765Z,3.20
2022-11-30T04:57:40.915Z,3.80
2022-11-30T04:58:41.025Z,3.90
2022-11-30T04:59:41.198Z,3.20
2022-11-30T05:00:41.342Z,3.50
2022-11-30T05:01:41.556Z,3.90
2022-11-30T05:02:41.620Z,3.80
2022-11-30T05:03:42.700Z,3.50
2022-11-30T05:04:41.950Z,4.60
2022-11-30T05:05:42.060Z,5.20
2022-11-30T05:06:42.222Z,3.00
2022-11-30T05:07:42.331Z,4.00
2022-11-30T05:08:42.421Z,4.00
2022-11-30T05:09:42.542Z,3.90
2022-11-30T05:10:42.700Z,3.50
2022-11-30T05:11:42.770Z,3.40
2022-11-30T05:12:42.932Z,3.60
2022-11-30T05:13:43.058Z,3.70
2022-11-30T05:14:43.224Z,4.10
2022-11-30T05:15:43.351Z,3.80
2022-11-30T05:16:43.513Z,3.80
2022-11-30T05:17:43.645Z,4.00
2022-11-30T05:18:43.799Z,4.00
2022-11-30T05:19:43.900Z,4.30
2022-11-30T05:20:45.002Z,4.20
2022-11-30T05:21:45.735Z,4.50
2022-11-30T05:22:44.333Z,5.00
2022-11-30T05:23:44.419Z,4.30
2022-11-30T05:24:44.706Z,4.10
2022-11-30T05:25:44.681Z,3.40
2022-11-30T05:26:44.855Z,4.30
2022-11-30T05:27:45.896Z,3.90
2022-11-30T05:28:45.088Z,4.30
2022-11-30T05:29:45.232Z,4.50
2022-11-30T05:30:45.364Z,4.00
2022-11-30T05:31:45.532Z,4.40
2022-11-30T05:32:45.700Z,4.00
2022-11-30T05:33:45.793Z,4.40
2022-11-30T05:34:51.106Z,3.90
2022-11-30T05:35:47.065Z,3.80
2022-11-30T05:36:46.205Z,4.70
2022-11-30T05:37:46.302Z,3.70
2022-11-30T05:38:46.451Z,4.20
2022-11-30T05:39:46.585Z,4.60
2022-11-30T05:40:46.737Z,4.20
2022-11-30T05:41:46.889Z,3.90
2022-11-30T05:42:47.047Z,4.00
2022-11-30T05:43:47.183Z,4.20
2022-11-30T05:44:47.590Z,4.40
2022-11-30T05:45:47.486Z,4.50
2022-11-30T05:46:47.687Z,4.10
2022-11-30T05:47:47.754Z,4.20
2022-11-30T05:48:47.834Z,4.10
2022-11-30T05:49:47.973Z,4.30
2022-11-30T05:50:48.103Z,4.10
2022-11-30T05:51:48.264Z,3.40
2022-11-30T05:52:48.416Z,4.20
2022-11-30T05:53:48.567Z,4.40
2022-11-30T05:54:49.033Z,4.30
2022-11-30T05:55:48.855Z,3.90
2022-11-30T05:56:53.126Z,4.20
2022-11-30T05:57:50.101Z,4.50
2022-11-30T05:58:49.267Z,4.30
2022-11-30T05:59:49.417Z,4.10
2022-11-30T06:00:49.552Z,4.70
2022-11-30T06:01:49.809Z,3.90
2022-11-30T06:02:49.951Z,4.20
2022-11-30T06:03:49.974Z,4.20
2022-11-30T06:04:50.178Z,3.90
2022-11-30T06:05:50.241Z,4.80
2022-11-30T06:06:50.434Z,4.50
2022-11-30T06:07:50.533Z,3.90
2022-11-30T06:08:50.660Z,3.60
2022-11-30T06:09:50.731Z,4.00
2022-11-30T06:10:50.891Z,4.40
2022-11-30T06:11:51.019Z,4.20
2022-11-30T06:12:51.151Z,3.70
2022-11-30T06:13:51.311Z,4.30
2022-11-30T06:14:51.459Z,4.00
2022-11-30T06:15:51.598Z,4.70
2022-11-30T06:16:51.780Z,4.40
2022-11-30T06:17:51.830Z,3.60
2022-11-30T06:18:51.979Z,4.20
2022-11-30T06:19:52.167Z,4.40
2022-11-30T06:20:52.274Z,4.80
2022-11-30T06:21:52.401Z,4.60
2022-11-30T06:22:52.548Z,4.70
2022-11-30T06:23:52.788Z,4.90
2022-11-30T06:24:52.841Z,4.40
2022-11-30T06:25:52.966Z,4.30
2022-11-30T06:26:53.103Z,4.60
2022-11-30T06:27:53.246Z,5.00
2022-11-30T06:28:53.411Z,4.80
2022-11-30T06:29:53.474Z,4.10
2022-11-30T06:30:53.649Z,4.50
2022-11-30T06:31:53.813Z,4.90
2022-11-30T06:32:53.963Z,5.00
2022-11-30T06:33:54.079Z,4.80
2022-11-30T06:34:54.239Z,4.50
2022-11-30T06:35:54.377Z,4.50
2022-11-30T06:36:54.530Z,5.00
2022-11-30T06:37:54.658Z,4.70
2022-11-30T06:38:54.834Z,4.90
2022-11-30T06:40:10.241Z,5.10
2022-11-30T06:40:56.148Z,4.80
2022-11-30T06:41:55.356Z,5.10
2022-11-30T06:42:55.524Z,4.50
2022-11-30T06:43:55.576Z,4.70
2022-11-30T06:44:55.696Z,5.10
2022-11-30T06:45:56.958Z,5.10
2022-11-30T06:46:55.953Z,5.60
2022-11-30T06:47:56.045Z,4.70
2022-11-30T06:48:59.033Z,4.50
2022-11-30T06:50:03.636Z,5.50
2022-11-30T06:50:58.658Z,5.00
2022-11-30T06:51:56.835Z,5.50
2022-11-30T06:52:56.895Z,4.90
2022-11-30T06:53:58.072Z,5.70
2022-11-30T06:54:57.113Z,5.90
2022-11-30T06:55:57.322Z,5.60
2022-11-30T06:56:58.095Z,5.60
2022-11-30T06:57:57.555Z,6.30
2022-11-30T06:59:04.733Z,5.20
2022-11-30T06:59:57.761Z,6.40
2022-11-30T07:00:57.997Z,5.30
2022-11-30T07:02:04.245Z,5.70
2022-11-30T07:03:00.086Z,6.20
2022-11-30T07:03:58.369Z,5.40
2022-11-30T07:04:58.517Z,4.90
2022-11-30T07:05:58.483Z,5.50
2022-11-30T07:06:59.372Z,6.00
2022-11-30T07:07:58.860Z,5.30
2022-11-30T07:08:58.823Z,5.50
2022-11-30T07:09:59.872Z,5.30
2022-11-30T07:11:00.013Z,5.60
2022-11-30T07:11:59.996Z,5.60
2022-11-30T07:13:00.096Z,5.50
2022-11-30T07:14:05.773Z,6.20
2022-11-30T07:15:00.492Z,5.30
2022-11-30T07:15:59.910Z,6.10
2022-11-30T07:16:59.942Z,6.00
2022-11-30T07:18:02.023Z,6.00
2022-11-30T07:19:01.043Z,6.30
2022-11-30T07:20:01.430Z,5.60
2022-11-30T07:21:00.512Z,5.80
2022-11-30T07:22:00.629Z,4.90
2022-11-30T07:23:01.285Z,5.90
2022-11-30T07:24:01.200Z,5.80
2022-11-30T07:25:06.531Z,5.90
2022-11-30T07:26:01.124Z,7.10
2022-11-30T07:27:03.851Z,6.50
2022-11-30T07:28:01.900Z,5.70
2022-11-30T07:29:05.931Z,6.40
2022-11-30T07:30:01.705Z,6.60
2022-11-30T07:31:03.052Z,5.30
2022-11-30T07:32:02.286Z,6.80
2022-11-30T07:33:12.379Z,5.60
2022-11-30T07:34:03.299Z,5.80
2022-11-30T07:35:02.531Z,5.80
2022-11-30T07:36:02.952Z,7.40
2022-11-30T07:37:02.618Z,5.70
2022-11-30T07:38:08.226Z,6.30
2022-11-30T07:39:04.176Z,6.10
2022-11-30T07:40:04.476Z,5.60
2022-11-30T07:41:03.261Z,5.30
2022-11-30T07:42:03.337Z,6.50
2022-11-30T07:43:03.534Z,6.10
2022-11-30T07:44:03.666Z,5.20
2022-11-30T07:45:03.790Z,6.40
2022-11-30T07:46:04.188Z,6.40
2022-11-30T07:47:04.756Z,6.50
2022-11-30T07:48:05.205Z,6.10
2022-11-30T07:49:05.752Z,5.60
2022-11-30T07:50:07.968Z,6.50
2022-11-30T07:51:04.556Z,5.70
2022-11-30T07:52:04.772Z,5.90
2022-11-30T07:53:04.754Z,6.40
2022-11-30T07:54:05.325Z,6.40
2022-11-30T07:55:05.331Z,6.60
2022-11-30T07:56:05.256Z,5.70
2022-11-30T07:57:05.316Z,7.50
2022-11-30T07:58:06.445Z,5.70
2022-11-30T07:59:05.657Z,6.60
2022-11-30T08:00:10.098Z,5.80
2022-11-30T08:01:05.957Z,5.60
2022-11-30T08:02:06.024Z,5.90
2022-11-30T08:03:06.058Z,6.10
2022-11-30T08:04:06.264Z,5.50
2022-11-30T08:05:06.954Z,6.30
2022-11-30T08:06:08.935Z,6.60
2022-11-30T08:07:16.782Z,6.40
2022-11-30T08:08:07.907Z,5.90
2022-11-30T08:09:07.896Z,6.70
2022-11-30T08:10:09.083Z,6.00
2022-11-30T08:11:15.755Z,6.10
2022-11-30T08:12:08.443Z,5.70
2022-11-30T08:13:09.374Z,7.00
2022-11-30T08:14:14.616Z,6.00
2022-11-30T08:15:24.103Z,5.90
2022-11-30T08:16:11.870Z,6.00
2022-11-30T08:17:08.758Z,6.00
2022-11-30T08:18:08.164Z,6.00
2022-11-30T08:19:13.693Z,6.00
2022-11-30T08:20:12.331Z,5.90
2022-11-30T08:21:09.476Z,5.60
2022-11-30T08:22:08.974Z,5.40
2022-11-30T08:23:08.852Z,5.60
2022-11-30T08:24:09.091Z,5.40
2022-11-30T08:25:13.831Z,5.60
2022-11-30T08:26:21.739Z,5.70
2022-11-30T08:27:11.765Z,5.80
2022-11-30T08:28:13.294Z,6.10
2022-11-30T08:29:11.069Z,6.30
2022-11-30T08:30:12.770Z,6.40
2022-11-30T08:31:10.634Z,6.60
2022-11-30T08:32:13.598Z,6.60
2022-11-30T08:33:32.745Z,5.50
2022-11-30T08:34:43.269Z,6.40
2022-11-30T08:35:20.271Z,5.40
2022-11-30T08:36:13.584Z,6.60
2022-11-30T08:37:14.806Z,6.30
2022-11-30T08:38:23.471Z,5.30
2022-11-30T08:39:11.338Z,5.70
2022-11-30T08:40:12.141Z,6.10
2022-11-30T08:41:11.937Z,5.90
2022-11-30T08:42:12.025Z,6.20
2022-11-30T08:43:13.760Z,6.80
2022-11-30T08:44:11.632Z,5.90
2022-11-30T08:45:11.712Z,6.60
2022-11-30T08:46:49.160Z,5.80
2022-11-30T08:47:13.168Z,6.10
2022-11-30T08:48:12.123Z,5.70
2022-11-30T08:49:24.683Z,5.60
2022-11-30T08:50:13.770Z,5.50
2022-11-30T08:51:13.593Z,6.20
2022-11-30T08:52:18.155Z,5.70
2022-11-30T08:53:16.874Z,6.00
2022-11-30T08:54:13.698Z,5.40
2022-11-30T08:55:13.118Z,6.00
2022-11-30T08:56:13.561Z,5.80
2022-11-30T08:57:21.002Z,5.70
2022-11-30T08:58:13.592Z,6.70
2022-11-30T08:59:17.268Z,6.00
2022-11-30T09:00:15.059Z,6.20
2022-11-30T09:01:14.908Z,5.60
2022-11-30T09:02:14.463Z,5.60
2022-11-30T09:03:14.876Z,6.10
2022-11-30T09:04:15.332Z,6.50
2022-11-30T09:05:15.699Z,5.70
2022-11-30T09:06:14.664Z,6.50
2022-11-30T09:07:15.768Z,5.70
2022-11-30T09:08:15.192Z,6.50
2022-11-30T09:09:15.397Z,5.80
2022-11-30T09:10:16.081Z,5.50
2022-11-30T09:11:20.833Z,5.60
2022-11-30T09:12:16.395Z,5.80
2022-11-30T09:13:15.852Z,5.50
2022-11-30T09:14:15.598Z,5.90
2022-11-30T09:15:17.031Z,5.00
2022-11-30T09:16:16.779Z,5.90
2022-11-30T09:17:16.036Z,5.70
2022-11-30T09:18:16.091Z,5.60
2022-11-30T09:19:16.524Z,5.70
2022-11-30T09:20:16.333Z,5.60
2022-11-30T09:21:16.464Z,5.90
2022-11-30T09:22:19.581Z,5.50
2022-11-30T09:23:17.598Z,6.60
2022-11-30T09:24:17.045Z,6.60
2022-11-30T09:25:17.122Z,6.70
2022-11-30T09:26:17.172Z,5.10
2022-11-30T09:27:17.362Z,5.70
2022-11-30T09:28:17.416Z,5.60
2022-11-30T09:29:17.703Z,5.50
2022-11-30T09:30:17.723Z,5.40
2022-11-30T09:31:19.862Z,5.60
2022-11-30T09:32:18.972Z,6.80
2022-11-30T09:33:19.593Z,5.40
2022-11-30T09:34:18.153Z,4.80
2022-11-30T09:35:18.241Z,5.40
2022-11-30T09:36:18.962Z,5.80
2022-11-30T09:37:19.865Z,5.50
2022-11-30T09:38:20.650Z,6.60
2022-11-30T09:39:19.002Z,6.40
2022-11-30T09:40:20.056Z,6.50
2022-11-30T09:41:20.132Z,5.60
2022-11-30T09:42:19.543Z,5.90
2022-11-30T09:43:19.684Z,7.10
2022-11-30T09:44:19.653Z,6.20
2022-11-30T09:45:20.046Z,6.60
2022-11-30T09:46:23.726Z,5.80
2022-11-30T09:47:33.300Z,5.30
2022-11-30T09:49:01.902Z,5.60
2022-11-30T09:49:22.150Z,5.20
2022-11-30T09:50:20.809Z,6.30
2022-11-30T09:51:20.452Z,5.50
2022-11-30T09:52:24.042Z,5.60
2022-11-30T09:53:26.015Z,6.30
2022-11-30T09:54:21.801Z,5.20
2022-11-30T09:55:20.987Z,5.10
2022-11-30T09:56:21.030Z,5.60
2022-11-30T09:57:21.660Z,5.30
2022-11-30T09:58:22.394Z,6.70
2022-11-30T09:59:21.540Z,6.30
2022-11-30T10:00:23.212Z,6.30
2022-11-30T10:01:23.092Z,6.90
2022-11-30T10:02:21.999Z,5.90
2022-11-30T10:13:44.687Z,6.50
2022-11-30T10:14:45.620Z,6.10
2022-11-30T10:15:43.009Z,6.90
2022-11-30T10:16:43.956Z,7.20
2022-11-30T10:17:43.859Z,6.70
2022-11-30T10:18:50.996Z,6.70
2022-11-30T10:19:43.527Z,6.80
2022-11-30T10:20:43.622Z,8.40
2022-11-30T10:21:44.694Z,7.30
2022-11-30T10:22:44.847Z,7.50
2022-11-30T10:23:44.903Z,7.10
2022-11-30T10:24:50.044Z,7.30
2022-11-30T10:25:51.396Z,7.30
2022-11-30T10:26:48.347Z,7.80
2022-11-30T10:27:51.955Z,9.00
2022-11-30T10:28:47.739Z,7.50
2022-11-30T10:29:45.860Z,7.30
2022-11-30T10:31:09.275Z,8.80
2022-11-30T10:31:46.015Z,8.30
2022-11-30T10:32:48.083Z,9.00
2022-11-30T10:33:46.578Z,9.40
2022-11-30T10:34:45.895Z,8.90
2022-11-30T10:35:47.685Z,9.80
2022-11-30T10:36:45.648Z,9.40
2022-11-30T10:37:45.874Z,10.80
2022-11-30T10:38:45.957Z,10.70
2022-11-30T10:39:52.212Z,11.80
2022-11-30T10:40:52.891Z,11.50
2022-11-30T10:41:47.743Z,11.30
2022-11-30T10:42:47.100Z,11.10
2022-11-30T10:43:46.502Z,11.40
2022-11-30T10:44:47.224Z,12.50
2022-11-30T10:45:47.006Z,12.50
2022-11-30T10:46:50.948Z,12.40
2022-11-30T10:47:47.428Z,11.30
2022-11-30T10:48:48.054Z,11.50
2022-11-30T10:49:47.280Z,13.00
2022-11-30T10:50:48.475Z,12.70
2022-11-30T10:51:47.684Z,12.60
2022-11-30T10:52:47.876Z,11.90
2022-11-30T10:53:47.845Z,11.90
2022-11-30T10:54:48.862Z,12.20
2022-11-30T10:55:48.211Z,13.20
2022-11-30T10:56:48.178Z,12.20
2022-11-30T10:57:48.496Z,13.00
2022-11-30T10:58:48.572Z,13.20
2022-11-30T10:59:49.753Z,13.40
2022-11-30T11:00:48.727Z,14.00
2022-11-30T11:01:49.005Z,14.40
2022-11-30T11:02:49.023Z,14.50
2022-11-30T11:03:49.223Z,12.50
2022-11-30T11:04:50.115Z,12.10
2022-11-30T11:05:50.353Z,13.40
2022-11-30T11:06:49.581Z,13.30
2022-11-30T11:07:50.892Z,14.20
2022-11-30T11:08:49.751Z,13.70
2022-11-30T11:09:50.282Z,13.50
2022-11-30T11:10:50.010Z,13.00
2022-11-30T11:12:11.273Z,15.30
2022-11-30T11:12:50.263Z,14.70
2022-11-30T11:13:51.391Z,13.90
2022-11-30T11:14:50.818Z,13.80
2022-11-30T11:15:50.742Z,13.80
2022-11-30T11:16:50.799Z,14.10
2022-11-30T11:17:51.920Z,14.20
2022-11-30T11:18:51.830Z,14.30
2022-11-30T11:19:51.368Z,15.10
2022-11-30T11:20:55.612Z,14.60
2022-11-30T11:21:51.465Z,13.70
2022-11-30T11:22:51.709Z,12.90
2022-11-30T11:23:51.970Z,15.30
2022-11-30T11:24:51.905Z,14.80
2022-11-30T11:25:54.236Z,14.50
2022-11-30T11:26:52.188Z,14.10
2022-11-30T11:27:52.516Z,14.40
2022-11-30T11:28:52.350Z,15.90
2022-11-30T11:29:52.489Z,14.10
2022-11-30T11:30:53.437Z,13.90
2022-11-30T11:31:54.019Z,14.40
2022-11-30T11:32:52.974Z,15.50
2022-11-30T11:33:53.057Z,14.50
2022-11-30T11:34:53.441Z,16.30
2022-11-30T11:35:54.314Z,15.10
2022-11-30T11:36:53.650Z,14.90
2022-11-30T11:37:54.547Z,14.80
2022-11-30T11:39:07.488Z,15.60
2022-11-30T11:39:53.928Z,15.70
2022-11-30T11:40:54.428Z,15.00
2022-11-30T11:41:54.100Z,13.80
2022-11-30T11:42:54.409Z,16.20
2022-11-30T11:43:54.337Z,14.00
2022-11-30T11:44:54.481Z,15.30
2022-11-30T11:45:54.572Z,14.60
2022-11-30T11:46:54.806Z,14.40
2022-11-30T11:47:55.927Z,15.20
2022-11-30T11:48:55.475Z,15.70
2022-11-30T11:49:55.391Z,14.90
2022-11-30T11:51:06.682Z,15.00
2022-11-30T11:51:56.504Z,15.90
2022-11-30T11:52:56.235Z,14.60
2022-11-30T11:53:55.659Z,15.20
2022-11-30T11:54:55.791Z,15.40
2022-11-30T11:55:56.097Z,15.00
2022-11-30T11:56:56.663Z,15.60
2022-11-30T11:57:56.180Z,15.60
2022-11-30T11:58:58.921Z,14.80
2022-11-30T11:59:56.687Z,15.30
2022-11-30T12:01:16.769Z,14.80
2022-11-30T12:02:00.460Z,15.00
2022-11-30T12:02:57.672Z,13.80
2022-11-30T12:04:04.628Z,13.70
2022-11-30T12:04:57.387Z,15.40
2022-11-30T12:05:57.585Z,15.90
2022-11-30T12:06:59.832Z,15.80
2022-11-30T12:07:57.773Z,15.20
2022-11-30T12:09:05.516Z,14.40
2022-11-30T12:10:01.749Z,14.70
2022-11-30T12:10:58.058Z,15.70
2022-11-30T12:13:42.571Z,14.30
2022-11-30T12:14:41.371Z,14.70
2022-11-30T12:15:40.510Z,16.10
2022-11-30T12:16:44.550Z,16.70
2022-11-30T12:17:42.899Z,14.80
2022-11-30T12:18:39.928Z,14.70
2022-11-30T12:19:42.095Z,15.50
2022-11-30T12:20:39.476Z,15.20
2022-11-30T12:21:41.079Z,14.60
2022-11-30T12:22:39.702Z,16.40
2022-11-30T12:23:39.674Z,15.30
2022-11-30T12:24:40.384Z,16.00
2022-11-30T12:25:40.049Z,15.20
2022-11-30T12:26:40.991Z,14.00
2022-11-30T12:27:41.269Z,15.10
2022-11-30T12:28:41.352Z,17.30
2022-11-30T12:29:41.418Z,15.60
2022-11-30T12:30:41.391Z,15.30
2022-11-30T12:31:41.529Z,15.80
2022-11-30T12:32:42.684Z,15.50
2022-11-30T12:33:41.142Z,15.00
2022-11-30T12:34:41.968Z,15.90
2022-11-30T12:35:41.326Z,15.70
2022-11-30T12:36:41.488Z,15.70
2022-11-30T12:37:47.323Z,16.80
2022-11-30T12:38:42.777Z,16.60
2022-11-30T12:39:42.888Z,16.10
2022-11-30T12:40:42.007Z,16.90
2022-11-30T12:41:42.136Z,16.70
2022-11-30T12:42:42.282Z,15.90
2022-11-30T12:43:42.427Z,15.90
2022-11-30T12:44:42.860Z,15.80
2022-11-30T12:45:42.695Z,16.10
2022-11-30T12:46:43.676Z,16.50
2022-11-30T12:47:42.963Z,16.40
2022-11-30T12:48:43.206Z,15.20
2022-11-30T12:49:43.263Z,17.00
2022-11-30T12:50:43.365Z,15.20
2022-11-30T12:51:43.475Z,16.60
2022-11-30T12:52:43.661Z,16.30
2022-11-30T12:53:43.744Z,16.70
2022-11-30T12:54:43.874Z,16.10
2022-11-30T12:55:44.044Z,15.50
2022-11-30T12:56:46.123Z,15.40
2022-11-30T12:57:45.288Z,17.60
2022-11-30T12:58:44.513Z,16.60
2022-11-30T12:59:44.616Z,16.20
2022-11-30T13:00:44.822Z,17.00
2022-11-30T13:01:44.920Z,15.60
2022-11-30T13:02:45.092Z,16.90
2022-11-30T13:03:45.152Z,15.40
2022-11-30T13:04:45.501Z,15.50
2022-11-30T13:05:46.002Z,17.10
2022-11-30T13:06:45.607Z,15.80
2022-11-30T13:07:45.834Z,17.80
2022-11-30T13:08:46.649Z,17.10
2022-11-30T13:09:45.981Z,16.20
2022-11-30T13:10:46.228Z,16.00
2022-11-30T13:11:47.124Z,16.40
2022-11-30T13:12:46.455Z,16.60
2022-11-30T13:13:47.488Z,15.50
2022-11-30T13:14:46.951Z,16.70
2022-11-30T13:15:46.898Z,17.70
2022-11-30T13:16:46.883Z,16.70
2022-11-30T13:17:47.001Z,17.20
2022-11-30T13:18:47.132Z,17.60
2022-11-30T13:19:47.221Z,17.70
2022-11-30T13:20:47.364Z,17.20
2022-11-30T13:21:47.511Z,17.00
2022-11-30T13:22:48.630Z,18.00
2022-11-30T13:23:48.803Z,17.70
2022-11-30T13:24:48.884Z,18.60
2022-11-30T13:26:49.260Z,17.50
2022-11-30T13:27:48.367Z,17.10
2022-11-30T13:28:48.469Z,18.20
2022-11-30T13:29:48.644Z,18.90
2022-11-30T13:30:48.804Z,17.20
2022-11-30T13:31:48.877Z,17.90
2022-11-30T13:32:57.888Z,16.90
2022-11-30T13:33:50.159Z,17.50
2022-11-30T13:34:49.510Z,18.30
2022-11-30T13:35:50.188Z,18.70
2022-11-30T13:36:49.579Z,17.80
2022-11-30T13:37:58.263Z,16.40
2022-11-30T13:38:50.887Z,18.50
2022-11-30T13:39:49.946Z,17.00
2022-11-30T13:40:50.984Z,17.80
2022-11-30T13:41:51.156Z,18.00
2022-11-30T13:42:51.993Z,19.70
2022-11-30T13:43:50.638Z,18.80
2022-11-30T13:44:51.270Z,18.20
2022-11-30T13:45:50.941Z,17.90
2022-11-30T13:46:51.063Z,17.50
2022-11-30T13:47:51.098Z,17.10
2022-11-30T13:48:51.319Z,18.30
2022-11-30T13:49:51.397Z,18.90
2022-11-30T13:50:51.569Z,19.00
2022-11-30T13:52:20.002Z,19.60
2022-11-30T13:52:52.948Z,18.20
2022-11-30T13:53:51.895Z,17.30
2022-11-30T13:54:52.044Z,18.00
2022-11-30T13:55:52.200Z,16.90
2022-11-30T13:56:53.035Z,18.10
2022-11-30T13:57:52.585Z,18.60
2022-11-30T13:58:52.485Z,19.40
2022-11-30T13:59:52.620Z,19.00
2022-11-30T14:00:52.834Z,18.70
2022-11-30T14:04:24.123Z,17.70
2022-11-30T14:05:25.044Z,18.20
2022-11-30T14:06:28.648Z,18.30
2022-11-30T14:07:24.609Z,20.90
2022-11-30T14:08:24.615Z,19.50
2022-11-30T14:09:24.675Z,19.30
2022-11-30T14:10:25.277Z,18.50
2022-11-30T14:11:24.937Z,18.90
2022-11-30T14:12:25.021Z,19.90
2022-11-30T14:13:25.229Z,18.40
2022-11-30T14:14:25.525Z,19.80
2022-11-30T14:15:25.567Z,19.20
2022-11-30T14:16:25.661Z,18.20
2022-11-30T14:17:25.768Z,17.60
2022-11-30T14:18:25.930Z,19.10
2022-11-30T14:19:25.976Z,18.60
2022-11-30T14:20:26.925Z,18.60
2022-11-30T14:21:26.456Z,18.90
2022-11-30T14:22:26.348Z,18.90
2022-11-30T14:23:26.504Z,17.80
2022-11-30T14:24:26.655Z,17.50
2022-11-30T14:25:26.821Z,18.50
2022-11-30T14:26:26.926Z,18.50
2022-11-30T14:27:27.028Z,18.50
2022-11-30T14:28:27.202Z,18.20
2022-11-30T14:29:27.316Z,18.70
2022-11-30T14:30:27.515Z,19.10
2022-11-30T14:31:27.674Z,18.80
2022-11-30T14:32:27.811Z,19.00
2022-11-30T14:33:27.930Z,18.10
2022-11-30T14:34:27.964Z,17.90
2022-11-30T14:35:28.159Z,18.60
2022-11-30T14:36:28.289Z,19.60
2022-11-30T14:37:28.402Z,18.80
2022-11-30T14:38:28.499Z,18.70
2022-11-30T14:39:28.642Z,19.20
2022-11-30T14:40:28.818Z,18.60
2022-11-30T14:41:29.772Z,19.20
2022-11-30T14:42:29.037Z,19.50
2022-11-30T14:43:29.143Z,21.60
2022-11-30T14:44:29.235Z,18.00
2022-11-30T14:45:29.423Z,18.90
2022-11-30T14:46:29.603Z,18.60
2022-11-30T14:47:29.684Z,18.50
2022-11-30T14:48:29.789Z,18.60
2022-11-30T14:49:29.875Z,18.50
2022-11-30T14:50:30.053Z,19.30
2022-11-30T14:51:30.221Z,18.90
2022-11-30T14:52:33.478Z,18.50
2022-11-30T14:53:32.213Z,18.70
2022-11-30T14:54:30.745Z,19.00
2022-11-30T14:55:30.762Z,20.20
2022-11-30T14:56:30.921Z,18.40
2022-11-30T14:57:31.109Z,19.80
2022-11-30T14:58:31.209Z,19.00
2022-11-30T14:59:31.302Z,19.10
2022-11-30T15:00:31.467Z,18.10
2022-11-30T15:01:31.672Z,18.60
2022-11-30T15:02:31.785Z,19.40
2022-11-30T15:03:37.326Z,19.70
2022-11-30T15:04:33.075Z,18.20
2022-11-30T15:05:32.199Z,19.10
2022-11-30T15:06:32.398Z,19.90
2022-11-30T15:07:32.589Z,19.50
2022-11-30T15:08:32.667Z,18.90
2022-11-30T15:09:32.808Z,19.50
2022-11-30T15:10:32.971Z,19.30
2022-11-30T15:11:33.151Z,20.10
2022-11-30T15:12:33.229Z,19.40
2022-11-30T15:13:33.401Z,19.00
2022-11-30T15:14:33.536Z,20.20
2022-11-30T15:15:37.395Z,19.10
2022-11-30T15:16:34.960Z,19.20
2022-11-30T15:17:33.957Z,19.50
2022-11-30T15:18:35.024Z,20.50
2022-11-30T15:19:34.223Z,20.70
2022-11-30T15:20:34.346Z,20.80
2022-11-30T15:21:34.548Z,19.80
2022-11-30T15:22:34.617Z,20.40
2022-11-30T15:23:34.806Z,20.00
2022-11-30T15:24:34.877Z,21.00
2022-11-30T15:25:35.036Z,20.20
2022-11-30T15:26:35.138Z,19.50
2022-11-30T15:27:35.327Z,19.80
2022-11-30T15:28:35.467Z,19.70
2022-11-30T15:29:35.595Z,19.50
2022-11-30T15:30:35.754Z,20.30
2022-11-30T15:31:36.088Z,18.90
2022-11-30T15:32:36.045Z,19.50
2022-11-30T15:33:36.197Z,19.60
2022-11-30T15:34:37.118Z,19.60
2022-11-30T15:36:04.917Z,20.70
2022-11-30T15:36:37.636Z,20.50
2022-11-30T15:37:36.804Z,19.60
2022-11-30T15:38:37.005Z,21.30
2022-11-30T15:39:37.083Z,19.90
2022-11-30T15:40:37.255Z,20.70
2022-11-30T15:41:37.348Z,20.90
2022-11-30T15:42:37.485Z,20.60
2022-11-30T15:43:37.639Z,21.20
2022-11-30T15:44:38.744Z,20.30
2022-11-30T15:45:37.993Z,21.40
2022-11-30T15:46:44.559Z,20.20
2022-11-30T15:47:39.167Z,21.60
2022-11-30T15:48:38.288Z,21.90
2022-11-30T15:49:38.444Z,21.80
2022-11-30T15:50:38.572Z,20.00
2022-11-30T15:51:38.710Z,20.10
2022-11-30T15:52:38.853Z,21.00
2022-11-30T15:53:39.041Z,20.40
2022-11-30T15:54:39.109Z,21.20
2022-11-30T15:55:39.251Z,22.60
2022-11-30T15:56:39.384Z,21.00
2022-11-30T15:57:39.523Z,22.50
2022-11-30T15:58:39.685Z,22.00
2022-11-30T15:59:39.831Z,21.90
2022-11-30T16:00:39.952Z,23.10
2022-11-30T16:01:40.128Z,22.70
2022-11-30T16:12:51.876Z,25.30
2022-11-30T16:13:52.916Z,25.10
2022-11-30T16:14:52.099Z,24.50
2022-11-30T16:15:52.261Z,23.80
2022-11-30T16:16:52.456Z,24.20
2022-11-30T16:17:52.609Z,24.00
2022-11-30T16:18:52.698Z,24.60
2022-11-30T16:19:52.778Z,24.90
2022-11-30T16:20:52.930Z,22.90
2022-11-30T16:21:53.045Z,24.80
2022-11-30T16:22:53.217Z,24.00
2022-11-30T16:23:53.315Z,25.80
2022-11-30T16:24:53.468Z,23.90
2022-11-30T16:25:53.614Z,23.90
2022-11-30T16:26:53.781Z,23.30
2022-11-30T16:27:53.877Z,23.60
2022-11-30T16:28:53.995Z,23.40
2022-11-30T16:29:54.593Z,26.10
2022-11-30T16:30:54.856Z,24.50
2022-11-30T16:31:54.497Z,24.30
2022-11-30T16:32:54.548Z,23.90
2022-11-30T16:33:54.683Z,24.20
2022-11-30T16:34:54.813Z,22.40
2022-11-30T16:35:54.942Z,23.50
2022-11-30T16:36:55.094Z,24.70
2022-11-30T16:37:55.226Z,25.60
2022-11-30T16:38:55.384Z,24.50
2022-11-30T16:39:55.525Z,24.50
2022-11-30T16:40:55.702Z,24.30
2022-11-30T16:41:55.809Z,23.50
2022-11-30T16:42:55.982Z,24.70
2022-11-30T16:43:56.086Z,23.30
2022-11-30T16:44:56.199Z,24.10
2022-11-30T16:45:56.375Z,23.30
2022-11-30T16:46:56.403Z,24.40
2022-11-30T16:47:56.567Z,25.70
2022-11-30T16:48:56.711Z,23.50
2022-11-30T16:49:56.881Z,24.20
2022-11-30T16:50:56.950Z,24.50
2022-11-30T16:51:57.102Z,25.90
2022-11-30T16:52:57.231Z,26.00
2022-11-30T16:53:57.409Z,24.60
2022-11-30T16:54:57.501Z,24.60
2022-11-30T16:55:57.640Z,24.60
2022-11-30T16:56:57.785Z,24.90
2022-11-30T16:57:57.935Z,25.60
2022-11-30T16:58:58.067Z,25.10
2022-11-30T16:59:58.221Z,24.70
2022-11-30T17:00:58.417Z,24.20
2022-11-30T17:01:58.621Z,25.20
2022-11-30T17:02:58.679Z,26.00
2022-11-30T17:03:58.772Z,23.90
2022-11-30T17:04:58.946Z,25.70
2022-11-30T17:05:59.029Z,24.30
2022-11-30T17:07:02.876Z,24.50
2022-11-30T17:07:59.335Z,24.40
2022-11-30T17:08:59.449Z,24.70
2022-11-30T17:09:59.646Z,24.50
2022-11-30T17:11:00.674Z,25.50
2022-11-30T17:11:59.841Z,24.10
2022-11-30T17:12:59.977Z,23.90
2022-11-30T17:14:00.120Z,24.10
2022-11-30T17:15:00.286Z,26.00
2022-11-30T17:16:00.379Z,23.50
2022-11-30T17:17:00.578Z,24.10
2022-11-30T17:18:00.654Z,24.80
2022-11-30T17:19:00.777Z,24.80
2022-11-30T17:20:00.947Z,25.30
2022-11-30T17:21:01.015Z,23.50
2022-11-30T17:22:01.206Z,24.80
2022-11-30T17:23:01.350Z,25.40
2022-11-30T17:24:01.437Z,25.60
2022-11-30T17:25:01.593Z,25.20
2022-11-30T17:26:01.726Z,24.10
2022-11-30T17:27:01.912Z,26.30
2022-11-30T17:28:01.986Z,24.00
2022-11-30T17:29:02.135Z,24.10
2022-11-30T17:30:02.268Z,25.20
2022-11-30T17:31:02.546Z,25.40
2022-11-30T17:32:02.549Z,24.20